sensor_id;sensor_type;location;lat;lon;timestamp;P1;durP1;ratioP1;P2;durP2;ratioP2
78752;SDS011;68072;51.688;7.842;2023-04-02T00:08:54;5.60;;;3.92;;
78752;SDS011;68072;51.688;7.842;2023-04-02T00:11:28;5.10;;;4.38;;
78752;SDS011;68072;51.688;7.842;2023-04-02T00:14:00;5.15;;;3.83;;
78752;SDS011;68072;51.688;7.842;2023-04-02T00:16:26;4.82;;;3.97;;
78752;SDS011;68072;51.688;7.842;2023-04-02T00:18:53;5.35;;;3.85;;
78752;SDS011;68072;51.688;7.842;2023-04-02T00:23:59;4.88;;;4.10;;
78752;SDS011;68072;51.688;7.842;2023-04-02T00:26:33;5.13;;;4.28;;
78752;SDS011;68072;51.688;7.842;2023-04-02T00:29:01;6.25;;;4.47;;
78752;SDS011;68072;51.688;7.842;2023-04-02T00:31:28;4.00;;;2.97;;
78752;SDS011;68072;51.688;7.842;2023-04-02T00:33:54;5.28;;;4.28;;
78752;SDS011;68072;51.688;7.842;2023-04-02T00:36:21;5.05;;;3.85;;
78752;SDS011;68072;51.688;7.842;2023-04-02T00:38:47;4.32;;;3.63;;
78752;SDS011;68072;51.688;7.842;2023-04-02T00:41:14;6.63;;;3.70;;
78752;SDS011;68072;51.688;7.842;2023-04-02T00:43:41;6.43;;;3.53;;
78752;SDS011;68072;51.688;7.842;2023-04-02T00:46:15;5.63;;;3.95;;
78752;SDS011;68072;51.688;7.842;2023-04-02T00:48:57;3.83;;;3.33;;
78752;SDS011;68072;51.688;7.842;2023-04-02T00:51:30;4.30;;;3.70;;
78752;SDS011;68072;51.688;7.842;2023-04-02T00:53:57;4.60;;;3.63;;
78752;SDS011;68072;51.688;7.842;2023-04-02T00:56:38;6.20;;;3.35;;
78752;SDS011;68072;51.688;7.842;2023-04-02T00:59:27;4.93;;;3.50;;
78752;SDS011;68072;51.688;7.842;2023-04-02T01:01:57;7.30;;;3.85;;
78752;SDS011;68072;51.688;7.842;2023-04-02T01:04:30;5.43;;;3.90;;
78752;SDS011;68072;51.688;7.842;2023-04-02T01:07:03;6.53;;;4.03;;
78752;SDS011;68072;51.688;7.842;2023-04-02T01:09:40;4.57;;;3.30;;
78752;SDS011;68072;51.688;7.842;2023-04-02T01:15:32;4.20;;;3.80;;
78752;SDS011;68072;51.688;7.842;2023-04-02T01:18:11;7.53;;;4.35;;
78752;SDS011;68072;51.688;7.842;2023-04-02T01:21:23;4.90;;;3.83;;
78752;SDS011;68072;51.688;7.842;2023-04-02T01:24:05;2.95;;;2.65;;
78752;SDS011;68072;51.688;7.842;2023-04-02T01:29:24;4.35;;;3.50;;
78752;SDS011;68072;51.688;7.842;2023-04-02T01:31:54;7.72;;;3.90;;
78752;SDS011;68072;51.688;7.842;2023-04-02T01:34:23;3.95;;;3.55;;
78752;SDS011;68072;51.688;7.842;2023-04-02T01:42:04;6.72;;;3.83;;
78752;SDS011;68072;51.688;7.842;2023-04-02T01:44:51;6.10;;;4.43;;
78752;SDS011;68072;51.688;7.842;2023-04-02T01:47:21;5.93;;;4.30;;
78752;SDS011;68072;51.688;7.842;2023-04-02T01:49:57;5.75;;;4.32;;
78752;SDS011;68072;51.688;7.842;2023-04-02T01:52:35;7.30;;;4.30;;
78752;SDS011;68072;51.688;7.842;2023-04-02T01:55:03;6.13;;;4.25;;
78752;SDS011;68072;51.688;7.842;2023-04-02T01:57:29;6.75;;;4.63;;
78752;SDS011;68072;51.688;7.842;2023-04-02T01:59:55;5.07;;;3.92;;
78752;SDS011;68072;51.688;7.842;2023-04-02T02:02:20;5.45;;;4.53;;
78752;SDS011;68072;51.688;7.842;2023-04-02T02:04:46;8.27;;;4.80;;
78752;SDS011;68072;51.688;7.842;2023-04-02T02:07:15;6.40;;;4.63;;
78752;SDS011;68072;51.688;7.842;2023-04-02T02:09:42;5.90;;;3.90;;
78752;SDS011;68072;51.688;7.842;2023-04-02T02:12:10;5.78;;;4.13;;
78752;SDS011;68072;51.688;7.842;2023-04-02T02:14:37;7.03;;;4.15;;
78752;SDS011;68072;51.688;7.842;2023-04-02T02:17:03;4.35;;;3.90;;
78752;SDS011;68072;51.688;7.842;2023-04-02T02:19:37;5.60;;;4.25;;
78752;SDS011;68072;51.688;7.842;2023-04-02T02:22:16;4.28;;;3.47;;
78752;SDS011;68072;51.688;7.842;2023-04-02T02:24:43;4.60;;;3.75;;
78752;SDS011;68072;51.688;7.842;2023-04-02T02:29:54;7.15;;;3.70;;
78752;SDS011;68072;51.688;7.842;2023-04-02T02:32:28;5.03;;;4.18;;
78752;SDS011;68072;51.688;7.842;2023-04-02T02:34:57;7.47;;;4.60;;
78752;SDS011;68072;51.688;7.842;2023-04-02T02:37:29;7.13;;;4.55;;
78752;SDS011;68072;51.688;7.842;2023-04-02T02:39:59;5.97;;;4.78;;
78752;SDS011;68072;51.688;7.842;2023-04-02T02:42:26;5.70;;;4.65;;
78752;SDS011;68072;51.688;7.842;2023-04-02T02:44:56;4.35;;;3.30;;
78752;SDS011;68072;51.688;7.842;2023-04-02T02:47:28;7.57;;;4.95;;
78752;SDS011;68072;51.688;7.842;2023-04-02T02:49:56;5.60;;;4.28;;
78752;SDS011;68072;51.688;7.842;2023-04-02T02:52:27;5.60;;;4.13;;
78752;SDS011;68072;51.688;7.842;2023-04-02T02:54:56;5.95;;;4.22;;
78752;SDS011;68072;51.688;7.842;2023-04-02T02:57:27;6.10;;;4.38;;
78752;SDS011;68072;51.688;7.842;2023-04-02T02:59:56;5.97;;;4.30;;
78752;SDS011;68072;51.688;7.842;2023-04-02T03:02:23;5.70;;;3.95;;
78752;SDS011;68072;51.688;7.842;2023-04-02T03:07:17;8.02;;;3.88;;
78752;SDS011;68072;51.688;7.842;2023-04-02T03:12:41;5.43;;;4.43;;
78752;SDS011;68072;51.688;7.842;2023-04-02T03:17:38;6.47;;;4.18;;
78752;SDS011;68072;51.688;7.842;2023-04-02T03:20:14;7.40;;;4.70;;
78752;SDS011;68072;51.688;7.842;2023-04-02T03:22:46;7.82;;;5.28;;
78752;SDS011;68072;51.688;7.842;2023-04-02T03:28:03;5.93;;;4.88;;
78752;SDS011;68072;51.688;7.842;2023-04-02T03:33:02;8.55;;;5.13;;
78752;SDS011;68072;51.688;7.842;2023-04-02T03:35:35;11.77;;;6.20;;
78752;SDS011;68072;51.688;7.842;2023-04-02T03:38:21;8.90;;;5.75;;
78752;SDS011;68072;51.688;7.842;2023-04-02T03:41:02;10.75;;;5.65;;
78752;SDS011;68072;51.688;7.842;2023-04-02T03:43:32;10.98;;;6.18;;
78752;SDS011;68072;51.688;7.842;2023-04-02T03:46:04;8.43;;;5.68;;
78752;SDS011;68072;51.688;7.842;2023-04-02T03:48:39;10.23;;;6.13;;
78752;SDS011;68072;51.688;7.842;2023-04-02T03:51:12;13.20;;;6.93;;
78752;SDS011;68072;51.688;7.842;2023-04-02T03:53:41;11.35;;;6.25;;
78752;SDS011;68072;51.688;7.842;2023-04-02T03:56:07;7.13;;;5.15;;
78752;SDS011;68072;51.688;7.842;2023-04-02T03:58:38;10.32;;;6.78;;
78752;SDS011;68072;51.688;7.842;2023-04-02T04:04:09;7.88;;;5.07;;
78752;SDS011;68072;51.688;7.842;2023-04-02T04:06:42;9.60;;;6.35;;
78752;SDS011;68072;51.688;7.842;2023-04-02T04:09:10;13.02;;;6.25;;
78752;SDS011;68072;51.688;7.842;2023-04-02T04:11:47;12.10;;;6.07;;
78752;SDS011;68072;51.688;7.842;2023-04-02T04:22:32;6.35;;;4.32;;
78752;SDS011;68072;51.688;7.842;2023-04-02T04:24:59;9.93;;;6.30;;
78752;SDS011;68072;51.688;7.842;2023-04-02T04:30:23;10.80;;;6.03;;
78752;SDS011;68072;51.688;7.842;2023-04-02T04:32:58;12.48;;;5.72;;
78752;SDS011;68072;51.688;7.842;2023-04-02T04:35:32;10.38;;;6.25;;
78752;SDS011;68072;51.688;7.842;2023-04-02T04:38:00;11.07;;;6.32;;
78752;SDS011;68072;51.688;7.842;2023-04-02T04:40:32;10.63;;;6.30;;
78752;SDS011;68072;51.688;7.842;2023-04-02T04:43:05;11.98;;;5.00;;
78752;SDS011;68072;51.688;7.842;2023-04-02T04:53:23;11.93;;;5.85;;
78752;SDS011;68072;51.688;7.842;2023-04-02T04:55:59;10.85;;;4.75;;
78752;SDS011;68072;51.688;7.842;2023-04-02T04:58:33;11.45;;;5.93;;
78752;SDS011;68072;51.688;7.842;2023-04-02T05:06:00;10.32;;;5.95;;
78752;SDS011;68072;51.688;7.842;2023-04-02T05:08:31;10.57;;;6.20;;
78752;SDS011;68072;51.688;7.842;2023-04-02T05:11:02;13.20;;;5.40;;
78752;SDS011;68072;51.688;7.842;2023-04-02T05:13:40;5.75;;;3.90;;
78752;SDS011;68072;51.688;7.842;2023-04-02T05:19:05;10.73;;;4.82;;
78752;SDS011;68072;51.688;7.842;2023-04-02T05:21:47;9.27;;;5.43;;
78752;SDS011;68072;51.688;7.842;2023-04-02T05:27:14;7.75;;;5.10;;
78752;SDS011;68072;51.688;7.842;2023-04-02T05:29:42;7.40;;;4.80;;
78752;SDS011;68072;51.688;7.842;2023-04-02T05:32:16;7.85;;;4.53;;
78752;SDS011;68072;51.688;7.842;2023-04-02T05:34:45;10.25;;;4.93;;
78752;SDS011;68072;51.688;7.842;2023-04-02T05:37:15;8.85;;;5.25;;
78752;SDS011;68072;51.688;7.842;2023-04-02T05:39:43;9.45;;;5.05;;
78752;SDS011;68072;51.688;7.842;2023-04-02T05:42:14;7.07;;;4.78;;
78752;SDS011;68072;51.688;7.842;2023-04-02T05:44:53;7.00;;;5.10;;
78752;SDS011;68072;51.688;7.842;2023-04-02T05:47:22;7.22;;;4.53;;
78752;SDS011;68072;51.688;7.842;2023-04-02T05:50:07;8.35;;;4.90;;
78752;SDS011;68072;51.688;7.842;2023-04-02T05:52:46;6.35;;;4.30;;
78752;SDS011;68072;51.688;7.842;2023-04-02T05:57:48;4.63;;;3.63;;
78752;SDS011;68072;51.688;7.842;2023-04-02T06:01:17;8.75;;;3.97;;
78752;SDS011;68072;51.688;7.842;2023-04-02T06:08:57;5.95;;;3.65;;
78752;SDS011;68072;51.688;7.842;2023-04-02T06:11:30;5.55;;;3.58;;
78752;SDS011;68072;51.688;7.842;2023-04-02T06:13:57;5.00;;;3.35;;
78752;SDS011;68072;51.688;7.842;2023-04-02T06:16:26;4.65;;;3.75;;
78752;SDS011;68072;51.688;7.842;2023-04-02T06:18:52;7.90;;;3.67;;
78752;SDS011;68072;51.688;7.842;2023-04-02T06:21:19;8.68;;;3.95;;
78752;SDS011;68072;51.688;7.842;2023-04-02T06:23:52;6.93;;;3.47;;
78752;SDS011;68072;51.688;7.842;2023-04-02T06:28:58;5.35;;;3.20;;
78752;SDS011;68072;51.688;7.842;2023-04-02T06:31:32;3.30;;;2.92;;
78752;SDS011;68072;51.688;7.842;2023-04-02T06:34:01;6.10;;;3.50;;
78752;SDS011;68072;51.688;7.842;2023-04-02T06:36:28;3.15;;;2.70;;
78752;SDS011;68072;51.688;7.842;2023-04-02T06:38:58;3.50;;;2.67;;
78752;SDS011;68072;51.688;7.842;2023-04-02T06:41:29;4.75;;;3.22;;
78752;SDS011;68072;51.688;7.842;2023-04-02T06:44:28;3.63;;;2.75;;
78752;SDS011;68072;51.688;7.842;2023-04-02T06:51:49;3.17;;;2.35;;
78752;SDS011;68072;51.688;7.842;2023-04-02T06:54:17;2.53;;;2.20;;
78752;SDS011;68072;51.688;7.842;2023-04-02T06:56:45;5.57;;;3.22;;
78752;SDS011;68072;51.688;7.842;2023-04-02T06:59:13;6.40;;;3.20;;
78752;SDS011;68072;51.688;7.842;2023-04-02T07:09:03;4.27;;;2.33;;
78752;SDS011;68072;51.688;7.842;2023-04-02T07:11:29;4.95;;;2.45;;
78752;SDS011;68072;51.688;7.842;2023-04-02T07:13:55;2.17;;;2.00;;
78752;SDS011;68072;51.688;7.842;2023-04-02T07:16:22;3.35;;;2.13;;
78752;SDS011;68072;51.688;7.842;2023-04-02T07:18:52;3.95;;;2.30;;
78752;SDS011;68072;51.688;7.842;2023-04-02T07:21:20;4.35;;;2.08;;
78752;SDS011;68072;51.688;7.842;2023-04-02T07:23:46;4.72;;;2.63;;
78752;SDS011;68072;51.688;7.842;2023-04-02T07:26:13;5.95;;;2.40;;
78752;SDS011;68072;51.688;7.842;2023-04-02T07:28:39;4.30;;;2.08;;
78752;SDS011;68072;51.688;7.842;2023-04-02T07:31:15;1.65;;;1.55;;
78752;SDS011;68072;51.688;7.842;2023-04-02T07:33:43;2.38;;;1.95;;
78752;SDS011;68072;51.688;7.842;2023-04-02T07:38:38;10.00;;;2.22;;
78752;SDS011;68072;51.688;7.842;2023-04-02T07:41:04;1.80;;;1.63;;
78752;SDS011;68072;51.688;7.842;2023-04-02T07:45:56;3.75;;;2.28;;
78752;SDS011;68072;51.688;7.842;2023-04-02T07:48:21;3.78;;;2.20;;
78752;SDS011;68072;51.688;7.842;2023-04-02T07:50:47;5.80;;;1.98;;
78752;SDS011;68072;51.688;7.842;2023-04-02T07:53:29;3.75;;;2.20;;
78752;SDS011;68072;51.688;7.842;2023-04-02T07:56:00;2.33;;;1.90;;
78752;SDS011;68072;51.688;7.842;2023-04-02T07:58:27;3.72;;;1.75;;
78752;SDS011;68072;51.688;7.842;2023-04-02T08:00:54;5.32;;;1.95;;
78752;SDS011;68072;51.688;7.842;2023-04-02T08:03:20;3.85;;;1.92;;
78752;SDS011;68072;51.688;7.842;2023-04-02T08:05:53;3.08;;;2.00;;
78752;SDS011;68072;51.688;7.842;2023-04-02T08:08:21;5.13;;;1.98;;
78752;SDS011;68072;51.688;7.842;2023-04-02T08:10:48;2.90;;;1.60;;
78752;SDS011;68072;51.688;7.842;2023-04-02T08:13:15;2.90;;;1.70;;
78752;SDS011;68072;51.688;7.842;2023-04-02T08:18:07;3.40;;;1.80;;
78752;SDS011;68072;51.688;7.842;2023-04-02T08:20:32;1.67;;;1.45;;
78752;SDS011;68072;51.688;7.842;2023-04-02T08:22:58;1.83;;;1.73;;
78752;SDS011;68072;51.688;7.842;2023-04-02T08:25:25;4.40;;;1.80;;
78752;SDS011;68072;51.688;7.842;2023-04-02T08:27:51;1.60;;;1.50;;
78752;SDS011;68072;51.688;7.842;2023-04-02T08:30:17;3.83;;;1.80;;
78752;SDS011;68072;51.688;7.842;2023-04-02T08:32:43;2.72;;;2.28;;
78752;SDS011;68072;51.688;7.842;2023-04-02T08:35:11;1.75;;;1.52;;
78752;SDS011;68072;51.688;7.842;2023-04-02T08:37:39;3.65;;;1.83;;
78752;SDS011;68072;51.688;7.842;2023-04-02T08:40:06;2.40;;;1.85;;
78752;SDS011;68072;51.688;7.842;2023-04-02T08:42:43;4.60;;;1.50;;
78752;SDS011;68072;51.688;7.842;2023-04-02T08:48:11;1.60;;;1.20;;
78752;SDS011;68072;51.688;7.842;2023-04-02T08:50:40;3.10;;;1.50;;
78752;SDS011;68072;51.688;7.842;2023-04-02T08:53:11;2.13;;;1.88;;
78752;SDS011;68072;51.688;7.842;2023-04-02T08:58:38;1.60;;;1.45;;
78752;SDS011;68072;51.688;7.842;2023-04-02T09:01:20;4.65;;;1.63;;
78752;SDS011;68072;51.688;7.842;2023-04-02T09:03:57;8.65;;;2.20;;
78752;SDS011;68072;51.688;7.842;2023-04-02T09:06:27;2.13;;;1.70;;
78752;SDS011;68072;51.688;7.842;2023-04-02T09:08:54;1.88;;;1.40;;
78752;SDS011;68072;51.688;7.842;2023-04-02T09:13:58;1.58;;;1.48;;
78752;SDS011;68072;51.688;7.842;2023-04-02T09:16:39;2.03;;;1.80;;
78752;SDS011;68072;51.688;7.842;2023-04-02T09:19:22;1.52;;;1.42;;
78752;SDS011;68072;51.688;7.842;2023-04-02T09:22:01;5.10;;;1.45;;
78752;SDS011;68072;51.688;7.842;2023-04-02T09:24:30;2.80;;;1.83;;
78752;SDS011;68072;51.688;7.842;2023-04-02T09:26:56;2.92;;;1.45;;
78752;SDS011;68072;51.688;7.842;2023-04-02T09:31:56;2.53;;;1.40;;
78752;SDS011;68072;51.688;7.842;2023-04-02T09:34:27;1.35;;;1.27;;
78752;SDS011;68072;51.688;7.842;2023-04-02T09:37:19;3.63;;;1.67;;
78752;SDS011;68072;51.688;7.842;2023-04-02T09:39:46;2.15;;;1.60;;
78752;SDS011;68072;51.688;7.842;2023-04-02T09:42:30;3.25;;;1.60;;
78752;SDS011;68072;51.688;7.842;2023-04-02T09:45:11;3.42;;;1.40;;
78752;SDS011;68072;51.688;7.842;2023-04-02T09:47:43;4.78;;;1.80;;
78752;SDS011;68072;51.688;7.842;2023-04-02T09:50:32;1.63;;;1.52;;
78752;SDS011;68072;51.688;7.842;2023-04-02T09:53:17;2.60;;;1.10;;
78752;SDS011;68072;51.688;7.842;2023-04-02T09:56:15;1.52;;;1.42;;
78752;SDS011;68072;51.688;7.842;2023-04-02T09:59:00;5.10;;;2.20;;
78752;SDS011;68072;51.688;7.842;2023-04-02T10:01:28;4.80;;;1.70;;
78752;SDS011;68072;51.688;7.842;2023-04-02T10:03:59;1.73;;;1.05;;
78752;SDS011;68072;51.688;7.842;2023-04-02T10:06:28;1.98;;;1.60;;
78752;SDS011;68072;51.688;7.842;2023-04-02T10:08:55;1.33;;;1.23;;
78752;SDS011;68072;51.688;7.842;2023-04-02T10:13:58;3.92;;;1.80;;
78752;SDS011;68072;51.688;7.842;2023-04-02T10:18:58;1.65;;;1.55;;
78752;SDS011;68072;51.688;7.842;2023-04-02T10:21:34;1.70;;;1.27;;
78752;SDS011;68072;51.688;7.842;2023-04-02T10:24:01;1.70;;;1.58;;
78752;SDS011;68072;51.688;7.842;2023-04-02T10:37:18;3.05;;;1.40;;
78752;SDS011;68072;51.688;7.842;2023-04-02T10:40:54;3.13;;;2.10;;
78752;SDS011;68072;51.688;7.842;2023-04-02T10:42:58;5.45;;;1.40;;
78752;SDS011;68072;51.688;7.842;2023-04-02T10:48:09;1.58;;;1.33;;
78752;SDS011;68072;51.688;7.842;2023-04-02T10:53:29;4.38;;;2.25;;
78752;SDS011;68072;51.688;7.842;2023-04-02T10:56:01;1.30;;;1.20;;
78752;SDS011;68072;51.688;7.842;2023-04-02T10:58:30;5.20;;;1.65;;
78752;SDS011;68072;51.688;7.842;2023-04-02T11:01:06;1.52;;;1.42;;
78752;SDS011;68072;51.688;7.842;2023-04-02T11:03:42;2.13;;;1.35;;
78752;SDS011;68072;51.688;7.842;2023-04-02T11:06:16;1.88;;;1.30;;
78752;SDS011;68072;51.688;7.842;2023-04-02T11:08:46;3.58;;;1.52;;
78752;SDS011;68072;51.688;7.842;2023-04-02T11:11:56;1.85;;;1.30;;
78752;SDS011;68072;51.688;7.842;2023-04-02T11:14:16;1.77;;;1.40;;
78752;SDS011;68072;51.688;7.842;2023-04-02T11:16:47;4.47;;;1.50;;
78752;SDS011;68072;51.688;7.842;2023-04-02T11:21:42;1.75;;;1.58;;
78752;SDS011;68072;51.688;7.842;2023-04-02T11:26:49;1.63;;;1.27;;
78752;SDS011;68072;51.688;7.842;2023-04-02T11:29:21;2.60;;;1.50;;
78752;SDS011;68072;51.688;7.842;2023-04-02T11:31:50;7.45;;;1.67;;
78752;SDS011;68072;51.688;7.842;2023-04-02T11:37:07;1.52;;;1.42;;
78752;SDS011;68072;51.688;7.842;2023-04-02T11:42:21;1.38;;;1.27;;
78752;SDS011;68072;51.688;7.842;2023-04-02T11:44:49;0.70;;;0.70;;
78752;SDS011;68072;51.688;7.842;2023-04-02T11:47:16;4.75;;;2.05;;
78752;SDS011;68072;51.688;7.842;2023-04-02T11:52:28;2.33;;;1.52;;
78752;SDS011;68072;51.688;7.842;2023-04-02T11:55:00;2.13;;;1.60;;
78752;SDS011;68072;51.688;7.842;2023-04-02T11:57:42;4.90;;;1.88;;
78752;SDS011;68072;51.688;7.842;2023-04-02T12:00:28;3.22;;;1.85;;
78752;SDS011;68072;51.688;7.842;2023-04-02T12:06:11;1.55;;;1.45;;
78752;SDS011;68072;51.688;7.842;2023-04-02T12:08:56;1.55;;;1.45;;
78752;SDS011;68072;51.688;7.842;2023-04-02T12:11:30;3.20;;;1.60;;
78752;SDS011;68072;51.688;7.842;2023-04-02T12:13:57;2.28;;;1.60;;
78752;SDS011;68072;51.688;7.842;2023-04-02T12:16:24;2.17;;;1.40;;
78752;SDS011;68072;51.688;7.842;2023-04-02T12:18:55;4.55;;;1.58;;
78752;SDS011;68072;51.688;7.842;2023-04-02T12:21:23;2.05;;;1.20;;
78752;SDS011;68072;51.688;7.842;2023-04-02T12:23:51;1.40;;;1.30;;
78752;SDS011;68072;51.688;7.842;2023-04-02T12:29:12;2.60;;;1.23;;
78752;SDS011;68072;51.688;7.842;2023-04-02T12:31:44;3.92;;;1.95;;
78752;SDS011;68072;51.688;7.842;2023-04-02T12:34:15;1.50;;;1.40;;
78752;SDS011;68072;51.688;7.842;2023-04-02T12:39:18;1.52;;;1.40;;
78752;SDS011;68072;51.688;7.842;2023-04-02T12:41:44;2.03;;;1.40;;
78752;SDS011;68072;51.688;7.842;2023-04-02T12:44:16;1.50;;;1.25;;
78752;SDS011;68072;51.688;7.842;2023-04-02T12:46:48;3.80;;;1.70;;
78752;SDS011;68072;51.688;7.842;2023-04-02T12:52:09;2.58;;;1.33;;
78752;SDS011;68072;51.688;7.842;2023-04-02T12:54:49;7.00;;;1.92;;
78752;SDS011;68072;51.688;7.842;2023-04-02T12:57:19;2.67;;;1.65;;
78752;SDS011;68072;51.688;7.842;2023-04-02T12:59:47;3.50;;;1.80;;
78752;SDS011;68072;51.688;7.842;2023-04-02T13:02:26;2.25;;;1.73;;
78752;SDS011;68072;51.688;7.842;2023-04-02T13:04:57;1.75;;;1.10;;
78752;SDS011;68072;51.688;7.842;2023-04-02T13:07:26;1.45;;;1.27;;
78752;SDS011;68072;51.688;7.842;2023-04-02T13:09:54;2.08;;;1.23;;
78752;SDS011;68072;51.688;7.842;2023-04-02T13:12:24;2.28;;;1.42;;
78752;SDS011;68072;51.688;7.842;2023-04-02T13:14:55;2.28;;;1.45;;
78752;SDS011;68072;51.688;7.842;2023-04-02T13:20:36;1.40;;;1.30;;
78752;SDS011;68072;51.688;7.842;2023-04-02T13:25:58;1.75;;;1.30;;
78752;SDS011;68072;51.688;7.842;2023-04-02T13:28:35;1.67;;;1.55;;
78752;SDS011;68072;51.688;7.842;2023-04-02T13:31:01;1.90;;;1.27;;
78752;SDS011;68072;51.688;7.842;2023-04-02T13:33:27;1.75;;;1.65;;
78752;SDS011;68072;51.688;7.842;2023-04-02T13:35:52;1.73;;;1.40;;
78752;SDS011;68072;51.688;7.842;2023-04-02T13:38:18;1.60;;;1.50;;
78752;SDS011;68072;51.688;7.842;2023-04-02T13:40:43;2.45;;;1.30;;
78752;SDS011;68072;51.688;7.842;2023-04-02T13:43:14;1.40;;;1.30;;
78752;SDS011;68072;51.688;7.842;2023-04-02T13:45:42;2.47;;;1.48;;
78752;SDS011;68072;51.688;7.842;2023-04-02T13:48:12;1.17;;;1.13;;
78752;SDS011;68072;51.688;7.842;2023-04-02T13:50:40;1.15;;;1.05;;
78752;SDS011;68072;51.688;7.842;2023-04-02T13:53:07;1.77;;;1.45;;
78752;SDS011;68072;51.688;7.842;2023-04-02T13:55:34;1.70;;;1.10;;
78752;SDS011;68072;51.688;7.842;2023-04-02T13:58:03;3.08;;;1.40;;
78752;SDS011;68072;51.688;7.842;2023-04-02T14:00:30;2.17;;;1.40;;
78752;SDS011;68072;51.688;7.842;2023-04-02T14:03:02;1.65;;;1.20;;
78752;SDS011;68072;51.688;7.842;2023-04-02T14:11:09;2.25;;;1.52;;
78752;SDS011;68072;51.688;7.842;2023-04-02T14:25:08;1.35;;;1.30;;
78752;SDS011;68072;51.688;7.842;2023-04-02T14:30:45;2.13;;;1.50;;
78752;SDS011;68072;51.688;7.842;2023-04-02T14:36:14;1.95;;;1.40;;
78752;SDS011;68072;51.688;7.842;2023-04-02T14:38:53;1.52;;;1.35;;
78752;SDS011;68072;51.688;7.842;2023-04-02T14:41:24;2.38;;;1.45;;
78752;SDS011;68072;51.688;7.842;2023-04-02T14:46:27;2.15;;;1.90;;
78752;SDS011;68072;51.688;7.842;2023-04-02T14:56:54;1.20;;;1.20;;
78752;SDS011;68072;51.688;7.842;2023-04-02T15:02:42;1.83;;;1.10;;
78752;SDS011;68072;51.688;7.842;2023-04-02T15:05:25;1.85;;;1.38;;
78752;SDS011;68072;51.688;7.842;2023-04-02T15:13:02;5.97;;;2.17;;
78752;SDS011;68072;51.688;7.842;2023-04-02T15:15:45;3.72;;;1.50;;
78752;SDS011;68072;51.688;7.842;2023-04-02T15:18:13;1.50;;;1.40;;
78752;SDS011;68072;51.688;7.842;2023-04-02T15:20:58;4.10;;;1.50;;
78752;SDS011;68072;51.688;7.842;2023-04-02T15:32:05;1.27;;;1.17;;
78752;SDS011;68072;51.688;7.842;2023-04-02T15:34:45;1.60;;;1.25;;
78752;SDS011;68072;51.688;7.842;2023-04-02T15:39:41;3.17;;;1.65;;
78752;SDS011;68072;51.688;7.842;2023-04-02T15:42:29;2.15;;;1.40;;
78752;SDS011;68072;51.688;7.842;2023-04-02T15:50:50;1.60;;;1.50;;
78752;SDS011;68072;51.688;7.842;2023-04-02T15:53:27;1.70;;;1.02;;
78752;SDS011;68072;51.688;7.842;2023-04-02T16:11:54;2.95;;;1.50;;
78752;SDS011;68072;51.688;7.842;2023-04-02T16:14:28;2.00;;;1.35;;
78752;SDS011;68072;51.688;7.842;2023-04-02T16:16:57;2.85;;;1.40;;
78752;SDS011;68072;51.688;7.842;2023-04-02T16:19:29;1.30;;;1.17;;
78752;SDS011;68072;51.688;7.842;2023-04-02T16:22:05;1.38;;;1.20;;
78752;SDS011;68072;51.688;7.842;2023-04-02T16:24:36;1.50;;;1.40;;
78752;SDS011;68072;51.688;7.842;2023-04-02T16:29:57;1.80;;;1.25;;
78752;SDS011;68072;51.688;7.842;2023-04-02T16:35:16;1.60;;;1.40;;
78752;SDS011;68072;51.688;7.842;2023-04-02T16:45:37;12.98;;;5.82;;
78752;SDS011;68072;51.688;7.842;2023-04-02T16:48:30;3.88;;;2.33;;
78752;SDS011;68072;51.688;7.842;2023-04-02T16:51:38;2.40;;;1.90;;
78752;SDS011;68072;51.688;7.842;2023-04-02T16:54:26;1.70;;;1.50;;
78752;SDS011;68072;51.688;7.842;2023-04-02T16:59:54;3.13;;;2.20;;
78752;SDS011;68072;51.688;7.842;2023-04-02T17:05:57;1.50;;;1.40;;
78752;SDS011;68072;51.688;7.842;2023-04-02T17:08:43;2.08;;;1.90;;
78752;SDS011;68072;51.688;7.842;2023-04-02T17:14:14;2.35;;;1.40;;
78752;SDS011;68072;51.688;7.842;2023-04-02T17:19:08;2.05;;;1.25;;
78752;SDS011;68072;51.688;7.842;2023-04-02T17:21:39;2.50;;;1.50;;
78752;SDS011;68072;51.688;7.842;2023-04-02T17:26:45;4.63;;;1.65;;
78752;SDS011;68072;51.688;7.842;2023-04-02T17:29:14;3.90;;;1.98;;
78752;SDS011;68072;51.688;7.842;2023-04-02T17:31:47;3.13;;;1.77;;
78752;SDS011;68072;51.688;7.842;2023-04-02T17:34:14;2.67;;;1.52;;
78752;SDS011;68072;51.688;7.842;2023-04-02T17:42:54;2.47;;;1.77;;
78752;SDS011;68072;51.688;7.842;2023-04-02T17:45:44;1.30;;;1.20;;
78752;SDS011;68072;51.688;7.842;2023-04-02T17:54:06;3.05;;;1.80;;
78752;SDS011;68072;51.688;7.842;2023-04-02T18:18:52;3.13;;;2.13;;
78752;SDS011;68072;51.688;7.842;2023-04-02T18:21:37;2.78;;;1.80;;
78752;SDS011;68072;51.688;7.842;2023-04-02T18:24:29;4.28;;;1.52;;
78752;SDS011;68072;51.688;7.842;2023-04-02T18:33:21;2.10;;;1.85;;
78752;SDS011;68072;51.688;7.842;2023-04-02T18:51:43;2.75;;;2.53;;
78752;SDS011;68072;51.688;7.842;2023-04-02T18:54:17;4.05;;;2.10;;
78752;SDS011;68072;51.688;7.842;2023-04-02T18:56:47;3.47;;;2.30;;
78752;SDS011;68072;51.688;7.842;2023-04-02T19:04:25;2.28;;;2.13;;
78752;SDS011;68072;51.688;7.842;2023-04-02T19:06:54;3.70;;;2.30;;
78752;SDS011;68072;51.688;7.842;2023-04-02T19:09:32;4.85;;;2.53;;
78752;SDS011;68072;51.688;7.842;2023-04-02T19:11:59;4.28;;;2.55;;
78752;SDS011;68072;51.688;7.842;2023-04-02T19:14:25;4.65;;;2.85;;
78752;SDS011;68072;51.688;7.842;2023-04-02T19:22:45;4.43;;;2.47;;
78752;SDS011;68072;51.688;7.842;2023-04-02T19:35:50;3.35;;;2.28;;
78752;SDS011;68072;51.688;7.842;2023-04-02T19:44:12;6.78;;;2.58;;
78752;SDS011;68072;51.688;7.842;2023-04-02T19:46:39;7.55;;;2.85;;
78752;SDS011;68072;51.688;7.842;2023-04-02T19:49:15;5.47;;;2.28;;
78752;SDS011;68072;51.688;7.842;2023-04-02T19:51:47;2.33;;;2.10;;
78752;SDS011;68072;51.688;7.842;2023-04-02T19:54:16;8.02;;;2.40;;
78752;SDS011;68072;51.688;7.842;2023-04-02T19:56:41;4.60;;;2.10;;
78752;SDS011;68072;51.688;7.842;2023-04-02T19:59:08;5.65;;;2.53;;
78752;SDS011;68072;51.688;7.842;2023-04-02T20:01:34;2.15;;;1.88;;
78752;SDS011;68072;51.688;7.842;2023-04-02T20:03:59;2.47;;;2.25;;
78752;SDS011;68072;51.688;7.842;2023-04-02T20:06:25;3.90;;;2.70;;
78752;SDS011;68072;51.688;7.842;2023-04-02T20:08:51;5.13;;;2.80;;
78752;SDS011;68072;51.688;7.842;2023-04-02T20:11:16;2.42;;;1.70;;
78752;SDS011;68072;51.688;7.842;2023-04-02T20:13:42;3.70;;;2.10;;
78752;SDS011;68072;51.688;7.842;2023-04-02T20:16:07;3.00;;;2.42;;
78752;SDS011;68072;51.688;7.842;2023-04-02T20:18:33;3.70;;;2.10;;
78752;SDS011;68072;51.688;7.842;2023-04-02T20:21:04;2.63;;;2.42;;
78752;SDS011;68072;51.688;7.842;2023-04-02T20:23:30;2.17;;;2.08;;
78752;SDS011;68072;51.688;7.842;2023-04-02T20:25:56;4.03;;;2.05;;
78752;SDS011;68072;51.688;7.842;2023-04-02T20:28:22;5.80;;;2.53;;
78752;SDS011;68072;51.688;7.842;2023-04-02T20:30:50;3.35;;;2.08;;
78752;SDS011;68072;51.688;7.842;2023-04-02T20:33:16;2.00;;;1.90;;
78752;SDS011;68072;51.688;7.842;2023-04-02T20:35:46;2.85;;;2.28;;
78752;SDS011;68072;51.688;7.842;2023-04-02T20:38:12;3.53;;;1.98;;
78752;SDS011;68072;51.688;7.842;2023-04-02T20:40:38;2.60;;;1.92;;
78752;SDS011;68072;51.688;7.842;2023-04-02T20:43:05;2.60;;;2.10;;
78752;SDS011;68072;51.688;7.842;2023-04-02T20:45:31;3.85;;;2.00;;
78752;SDS011;68072;51.688;7.842;2023-04-02T20:47:57;2.22;;;2.03;;
78752;SDS011;68072;51.688;7.842;2023-04-02T20:50:22;4.43;;;1.95;;
78752;SDS011;68072;51.688;7.842;2023-04-02T20:52:48;2.80;;;2.42;;
78752;SDS011;68072;51.688;7.842;2023-04-02T20:55:13;5.90;;;2.42;;
78752;SDS011;68072;51.688;7.842;2023-04-02T20:57:39;2.53;;;1.88;;
78752;SDS011;68072;51.688;7.842;2023-04-02T21:00:05;3.17;;;2.00;;
78752;SDS011;68072;51.688;7.842;2023-04-02T21:02:32;1.90;;;1.77;;
78752;SDS011;68072;51.688;7.842;2023-04-02T21:04:58;1.73;;;1.63;;